createdAt,value
2017-03-11T00:00:58.338Z,22.13
2017-03-11T00:02:08.069Z,22.08
2017-03-11T00:03:18.427Z,22.07
2017-03-11T00:04:27.996Z,22.08
2017-03-11T00:05:37.579Z,22.04
2017-03-11T00:06:47.916Z,22.11
2017-03-11T00:07:58.195Z,22.1
2017-03-11T00:09:08.104Z,21.95
2017-03-11T00:10:17.622Z,22.02
2017-03-11T00:11:27.540Z,22.07
2017-03-11T00:12:37.485Z,21.92
2017-03-11T00:13:47.058Z,22.04
2017-03-11T00:14:57.011Z,22
2017-03-11T00:16:06.571Z,22
2017-03-11T00:17:16.518Z,22
2017-03-11T00:18:26.076Z,21.96
2017-03-11T00:19:36.189Z,21.96
2017-03-11T00:20:46.083Z,22.02
2017-03-11T00:21:56.379Z,21.98
2017-03-11T00:23:06.712Z,21.98
2017-03-11T00:24:17.056Z,21.93
2017-03-11T00:25:26.231Z,21.95
2017-03-11T00:26:36.168Z,21.89
2017-03-11T00:27:45.349Z,21.96
2017-03-11T00:28:55.313Z,21.98
2017-03-11T00:30:05.259Z,21.95
2017-03-11T00:31:14.413Z,21.91
2017-03-11T00:32:23.987Z,21.83
2017-03-11T00:33:33.554Z,21.85
2017-03-11T00:34:43.522Z,21.89
2017-03-11T00:35:53.482Z,21.88
2017-03-11T00:37:03.048Z,21.92
2017-03-11T00:38:12.615Z,21.89
2017-03-11T00:39:22.541Z,21.88
2017-03-11T00:40:32.447Z,21.91
2017-03-11T00:41:41.619Z,21.91
2017-03-11T00:42:51.572Z,21.88
2017-03-11T00:44:01.130Z,21.83
2017-03-11T00:45:11.054Z,21.85
2017-03-11T00:46:20.218Z,21.83
2017-03-11T00:47:29.396Z,21.79
2017-03-11T00:48:38.573Z,21.82
2017-03-11T00:49:48.090Z,21.82
2017-03-11T00:50:57.581Z,21.73
2017-03-11T00:52:07.426Z,21.79
2017-03-11T00:53:16.982Z,21.75
2017-03-11T00:54:26.886Z,21.69
2017-03-11T00:55:36.255Z,21.73
2017-03-11T00:56:46.228Z,21.72
2017-03-11T00:57:55.794Z,21.72
2017-03-11T00:59:05.360Z,21.75
2017-03-11T01:00:14.567Z,21.75
2017-03-11T01:01:24.503Z,21.75
2017-03-11T01:02:33.693Z,21.79
2017-03-11T01:03:43.611Z,21.7
2017-03-11T01:04:53.126Z,21.72
2017-03-11T01:06:03.062Z,21.66
2017-03-11T01:07:12.996Z,21.77
2017-03-11T01:08:22.529Z,21.69
2017-03-11T01:09:32.849Z,21.72
2017-03-11T01:10:42.040Z,21.69
2017-03-11T01:11:51.981Z,21.7
2017-03-11T01:13:01.545Z,21.76
2017-03-11T01:14:10.718Z,21.73
2017-03-11T01:15:21.037Z,21.7
2017-03-11T01:16:30.974Z,21.7
2017-03-11T01:17:40.884Z,21.6
2017-03-11T01:18:50.822Z,21.62
2017-03-11T01:20:00.770Z,21.61
2017-03-11T01:21:10.725Z,21.61
2017-03-11T01:22:20.660Z,21.57
2017-03-11T01:23:30.454Z,21.6
2017-03-11T01:24:40.345Z,21.62
2017-03-11T01:25:50.031Z,21.67
2017-03-11T01:26:59.556Z,21.6
2017-03-11T01:28:09.078Z,21.6
2017-03-11T01:29:19.024Z,21.58
2017-03-11T01:30:28.558Z,21.62
2017-03-11T01:31:37.374Z,21.57
2017-03-11T01:32:47.373Z,21.54
2017-03-11T01:33:57.266Z,21.5
2017-03-11T01:35:06.463Z,21.62
2017-03-11T01:36:16.415Z,21.51
2017-03-11T01:37:25.591Z,21.48
2017-03-11T01:38:35.149Z,21.6
2017-03-11T01:39:44.202Z,21.55
2017-03-11T01:40:54.536Z,21.51
2017-03-11T01:42:03.699Z,21.52
2017-03-11T01:43:12.475Z,21.52
2017-03-11T01:44:21.650Z,21.48
2017-03-11T01:45:31.215Z,21.43
2017-03-11T01:46:40.372Z,21.54
2017-03-11T01:47:50.935Z,21.43
2017-03-11T01:48:59.728Z,21.52
2017-03-11T01:50:08.914Z,21.48
2017-03-11T01:51:18.070Z,21.45
2017-03-11T01:52:27.610Z,21.43
2017-03-11T01:53:36.365Z,21.5
2017-03-11T01:54:46.284Z,21.4
2017-03-11T01:55:55.824Z,21.52
2017-03-11T01:57:05.356Z,21.45
2017-03-11T01:58:15.268Z,21.4
2017-03-11T01:59:25.587Z,21.43
2017-03-11T02:00:35.139Z,21.52
2017-03-11T02:01:44.334Z,21.43
2017-03-11T02:02:54.234Z,21.45
2017-03-11T02:04:03.368Z,21.45
2017-03-11T02:05:13.344Z,21.39
2017-03-11T02:06:22.859Z,21.42
2017-03-11T02:07:32.357Z,21.42
2017-03-11T02:08:41.144Z,21.42
2017-03-11T02:09:51.079Z,21.4
2017-03-11T02:11:01.021Z,21.39
2017-03-11T02:12:10.977Z,21.37
2017-03-11T02:13:20.169Z,21.36
2017-03-11T02:14:30.100Z,21.42
2017-03-11T02:15:39.684Z,21.35
2017-03-11T02:16:49.648Z,21.33
2017-03-11T02:17:58.852Z,21.3
2017-03-11T02:19:08.371Z,21.32
2017-03-11T02:20:17.919Z,21.37
2017-03-11T02:21:28.247Z,21.35
2017-03-11T02:22:37.821Z,21.35
2017-03-11T02:23:47.379Z,21.37
2017-03-11T02:24:56.530Z,21.37
2017-03-11T02:26:06.448Z,21.33
2017-03-11T02:27:16.735Z,21.3
2017-03-11T02:28:25.864Z,21.22
2017-03-11T02:29:36.164Z,21.33
2017-03-11T02:30:45.720Z,21.27
2017-03-11T02:31:55.655Z,21.25
2017-03-11T02:33:04.840Z,21.25
2017-03-11T02:34:14.779Z,21.22
2017-03-11T02:35:24.351Z,21.27
2017-03-11T02:36:34.678Z,21.2
2017-03-11T02:37:44.627Z,21.29
2017-03-11T02:38:54.581Z,21.18
2017-03-11T02:40:04.105Z,21.24
2017-03-11T02:41:13.244Z,21.27
2017-03-11T02:42:23.360Z,21.21
2017-03-11T02:43:32.899Z,21.24
2017-03-11T02:44:42.481Z,21.2
2017-03-11T02:45:52.832Z,21.29
2017-03-11T02:47:02.399Z,21.27
2017-03-11T02:48:11.606Z,21.33
2017-03-11T02:49:20.776Z,21.21
2017-03-11T02:50:30.739Z,21.33
2017-03-11T02:51:40.682Z,21.24
2017-03-11T02:52:50.238Z,21.21
2017-03-11T02:53:59.752Z,21.21
2017-03-11T02:55:09.671Z,21.21
2017-03-11T02:56:19.626Z,21.32
2017-03-11T02:57:29.578Z,21.21
2017-03-11T02:58:39.098Z,21.2
2017-03-11T02:59:49.009Z,21.22
2017-03-11T03:00:58.589Z,21.2
2017-03-11T03:02:07.764Z,21.15
2017-03-11T03:03:18.044Z,21.24
2017-03-11T03:04:27.568Z,21.21
2017-03-11T03:05:37.524Z,21.25
2017-03-11T03:06:46.308Z,21.17
2017-03-11T03:07:56.244Z,21.18
2017-03-11T03:09:06.188Z,21.17
2017-03-11T03:10:15.362Z,21.21
2017-03-11T03:11:25.267Z,21.18
2017-03-11T03:12:35.938Z,21.15
2017-03-11T03:13:45.735Z,21.14
2017-03-11T03:14:55.303Z,21.18
2017-03-11T03:16:04.897Z,21.07
2017-03-11T03:17:14.058Z,21.14
2017-03-11T03:18:23.266Z,21.11
2017-03-11T03:19:32.831Z,21.11
2017-03-11T03:20:42.773Z,21.14
2017-03-11T03:21:52.316Z,21.12
2017-03-11T03:23:11.160Z,21.17
2017-03-11T03:24:20.731Z,21.15
2017-03-11T03:25:30.299Z,21.14
2017-03-11T03:26:40.290Z,21.12
2017-03-11T03:27:49.873Z,21.12
2017-03-11T03:28:59.451Z,21.17
2017-03-11T03:30:08.593Z,21.09
2017-03-11T03:31:17.719Z,21.17
2017-03-11T03:32:27.229Z,21.15
2017-03-11T03:33:36.762Z,21.15
2017-03-11T03:34:46.332Z,21.14
2017-03-11T03:35:56.284Z,21.09
2017-03-11T03:37:06.255Z,21.09
2017-03-11T03:38:16.215Z,21.17
2017-03-11T03:39:25.773Z,21.09
2017-03-11T03:40:35.345Z,21.03
2017-03-11T03:41:44.911Z,21.09
2017-03-11T03:42:55.255Z,21.09
2017-03-11T03:44:04.442Z,21.12
2017-03-11T03:45:14.798Z,21.06
2017-03-11T03:46:24.746Z,21.06
2017-03-11T03:47:34.694Z,21.09
2017-03-11T03:48:44.598Z,21.06
2017-03-11T03:49:54.090Z,21.05
2017-03-11T03:51:04.389Z,21.05
2017-03-11T03:52:13.588Z,21.06
2017-03-11T03:53:23.163Z,21
2017-03-11T03:54:32.744Z,21.07
2017-03-11T03:55:43.073Z,21.06
2017-03-11T03:56:53.787Z,21.05
2017-03-11T03:58:03.317Z,21.07
2017-03-11T03:59:12.071Z,21.03
2017-03-11T04:00:22.031Z,21
2017-03-11T04:01:31.437Z,20.99
2017-03-11T04:02:40.992Z,20.96
2017-03-11T04:03:51.687Z,21.03
2017-03-11T04:05:01.610Z,21.05
2017-03-11T04:06:11.937Z,21.02
2017-03-11T04:07:22.261Z,20.99
2017-03-11T04:08:32.595Z,21.06
2017-03-11T04:09:42.108Z,21
2017-03-11T04:10:52.035Z,21.02
2017-03-11T04:12:01.995Z,21.02
2017-03-11T04:13:12.330Z,20.99
2017-03-11T04:14:21.888Z,20.95
2017-03-11T04:15:31.832Z,21.02
2017-03-11T04:16:41.394Z,20.92
2017-03-11T04:17:51.325Z,20.9
2017-03-11T04:19:01.279Z,20.93
2017-03-11T04:20:11.194Z,20.92
2017-03-11T04:21:20.966Z,20.96
2017-03-11T04:22:30.531Z,20.95
2017-03-11T04:23:40.428Z,20.87
2017-03-11T04:24:49.933Z,20.92
2017-03-11T04:25:59.085Z,20.93
2017-03-11T04:27:09.414Z,20.92
2017-03-11T04:28:19.355Z,20.93
2017-03-11T04:29:28.954Z,20.92
2017-03-11T04:30:38.905Z,20.88
2017-03-11T04:31:48.465Z,20.93
2017-03-11T04:32:58.414Z,20.93
2017-03-11T04:34:07.592Z,20.96
2017-03-11T04:35:17.527Z,20.92
2017-03-11T04:36:26.702Z,20.88
2017-03-11T04:37:36.865Z,20.87
2017-03-11T04:38:46.056Z,20.93
2017-03-11T04:39:55.223Z,20.95
2017-03-11T04:41:04.824Z,20.85
2017-03-11T04:42:13.994Z,20.87
2017-03-11T04:43:23.129Z,20.9
2017-03-11T04:44:33.061Z,20.92
2017-03-11T04:45:43.394Z,20.87
2017-03-11T04:46:53.358Z,20.87
2017-03-11T04:48:02.962Z,20.85
2017-03-11T04:49:13.329Z,20.85
2017-03-11T04:50:22.509Z,20.85
2017-03-11T04:51:32.461Z,20.82
2017-03-11T04:52:42.617Z,20.81
2017-03-11T04:53:52.197Z,20.87
2017-03-11T04:55:02.532Z,20.8
2017-03-11T04:56:11.697Z,20.78
2017-03-11T04:57:20.897Z,20.77
2017-03-11T04:58:30.056Z,20.81
2017-03-11T04:59:38.805Z,20.78
2017-03-11T05:00:47.573Z,20.84
2017-03-11T05:01:57.141Z,20.82
2017-03-11T05:03:07.115Z,20.82
2017-03-11T05:04:17.068Z,20.8
2017-03-11T05:05:26.601Z,20.85
2017-03-11T05:06:36.134Z,20.75
2017-03-11T05:07:45.522Z,20.85
2017-03-11T05:08:55.867Z,20.77
2017-03-11T05:10:05.424Z,20.77
2017-03-11T05:11:15.748Z,20.8
2017-03-11T05:12:25.329Z,20.77
2017-03-11T05:13:35.661Z,20.84
2017-03-11T05:14:45.220Z,20.9
2017-03-11T05:15:55.158Z,20.87
2017-03-11T05:17:04.721Z,20.78
2017-03-11T05:18:14.659Z,20.84
2017-03-11T05:19:23.852Z,20.9
2017-03-11T05:20:33.764Z,20.77
2017-03-11T05:21:43.712Z,20.77
2017-03-11T05:22:53.303Z,20.9
2017-03-11T05:24:02.819Z,20.82
2017-03-11T05:25:12.716Z,20.87
2017-03-11T05:26:21.868Z,20.8
2017-03-11T05:27:30.627Z,20.82
2017-03-11T05:28:40.168Z,20.85
2017-03-11T05:29:50.518Z,20.81
2017-03-11T05:31:00.843Z,20.78
2017-03-11T05:32:10.809Z,20.8
2017-03-11T05:33:19.968Z,20.81
2017-03-11T05:34:29.100Z,20.78
2017-03-11T05:35:39.058Z,20.85
2017-03-11T05:36:49.431Z,20.82
2017-03-11T05:37:58.995Z,20.85
2017-03-11T05:39:08.953Z,20.85
2017-03-11T05:40:18.501Z,20.88
2017-03-11T05:41:28.414Z,20.85
2017-03-11T05:42:37.975Z,20.82
2017-03-11T05:43:48.244Z,20.87
2017-03-11T05:44:58.181Z,20.96
2017-03-11T05:46:08.526Z,20.92
2017-03-11T05:47:17.709Z,20.92
2017-03-11T05:48:27.296Z,20.93
2017-03-11T05:49:36.888Z,20.95
2017-03-11T05:50:47.233Z,20.95
2017-03-11T05:51:57.985Z,20.93
2017-03-11T05:53:07.139Z,20.92
2017-03-11T05:54:16.677Z,20.93
2017-03-11T05:55:26.574Z,20.9
2017-03-11T05:56:35.747Z,21.03
2017-03-11T05:57:45.708Z,20.97
2017-03-11T05:58:54.929Z,20.97
2017-03-11T06:00:04.877Z,20.97
2017-03-11T06:01:14.037Z,21.05
2017-03-11T06:02:23.982Z,21.07
2017-03-11T06:03:33.786Z,21.06
2017-03-11T06:04:42.568Z,21.03
2017-03-11T06:05:52.102Z,21.05
2017-03-11T06:07:01.619Z,21.11
2017-03-11T06:08:11.561Z,21.15
2017-03-11T06:09:20.338Z,21.17
2017-03-11T06:10:30.327Z,21.09
2017-03-11T06:11:39.512Z,21.12
2017-03-11T06:12:49.076Z,21.11
2017-03-11T06:13:58.656Z,21.15
2017-03-11T06:15:08.994Z,21.21
2017-03-11T06:16:18.549Z,21.2
2017-03-11T06:17:28.110Z,21.21
2017-03-11T06:18:37.683Z,21.21
2017-03-11T06:19:46.845Z,21.24
2017-03-11T06:20:57.173Z,21.2
2017-03-11T06:22:07.535Z,21.27
2017-03-11T06:23:17.478Z,21.24
2017-03-11T06:24:27.430Z,21.21
2017-03-11T06:25:37.370Z,21.24
2017-03-11T06:26:47.902Z,21.25
2017-03-11T06:27:58.089Z,21.35
2017-03-11T06:29:07.651Z,21.32
2017-03-11T06:30:16.377Z,21.32
2017-03-11T06:31:26.642Z,21.37
2017-03-11T06:32:35.415Z,21.39
2017-03-11T06:33:45.369Z,21.35
2017-03-11T06:34:54.567Z,21.36
2017-03-11T06:36:04.723Z,21.37
2017-03-11T06:37:14.247Z,21.46
2017-03-11T06:38:24.140Z,21.45
2017-03-11T06:39:33.681Z,21.43
2017-03-11T06:40:42.866Z,21.43
2017-03-11T06:41:52.057Z,21.5
2017-03-11T06:43:02.009Z,21.48
2017-03-11T06:44:11.573Z,21.5
2017-03-11T06:45:21.144Z,21.46
2017-03-11T06:46:30.706Z,21.54
2017-03-11T06:47:40.291Z,21.54
2017-03-11T06:48:51.177Z,21.57
2017-03-11T06:50:00.359Z,21.58
2017-03-11T06:51:09.917Z,21.62
2017-03-11T06:52:19.883Z,21.64
2017-03-11T06:53:29.794Z,21.62
2017-03-11T06:54:38.560Z,21.73
2017-03-11T06:55:49.301Z,21.7
2017-03-11T06:56:58.846Z,21.66
2017-03-11T06:58:08.034Z,21.79
2017-03-11T06:59:17.607Z,21.72
2017-03-11T07:00:27.177Z,21.76
2017-03-11T07:01:37.496Z,21.82
2017-03-11T07:02:47.082Z,21.85
2017-03-11T07:03:56.652Z,21.82
2017-03-11T07:05:07.360Z,21.93
2017-03-11T07:06:16.528Z,21.96
2017-03-11T07:07:26.493Z,21.92
2017-03-11T07:08:36.054Z,21.93
2017-03-11T07:09:45.631Z,22.13
2017-03-11T07:10:55.540Z,22.08
2017-03-11T07:12:04.305Z,22.28
2017-03-11T07:13:13.523Z,22.28
2017-03-11T07:14:23.434Z,22.3
2017-03-11T07:15:32.580Z,22.35
2017-03-11T07:16:42.141Z,22.5
2017-03-11T07:17:50.992Z,22.55
2017-03-11T07:19:01.342Z,22.69
2017-03-11T07:20:11.677Z,22.73
2017-03-11T07:21:21.249Z,22.8
2017-03-11T07:22:31.847Z,22.99
2017-03-11T07:23:41.412Z,23.02
2017-03-11T07:24:50.592Z,23.08
2017-03-11T07:26:00.140Z,23.17
2017-03-11T07:27:10.085Z,23.36
2017-03-11T07:28:20.014Z,23.31
2017-03-11T07:29:29.524Z,23.43
2017-03-11T07:30:39.455Z,23.59
2017-03-11T07:31:49.393Z,23.66
2017-03-11T07:32:58.589Z,23.71
2017-03-11T07:34:08.559Z,23.71
2017-03-11T07:35:18.708Z,23.77
2017-03-11T07:36:28.523Z,23.87
2017-03-11T07:37:38.868Z,23.96
2017-03-11T07:38:48.831Z,24.02
2017-03-11T07:39:58.760Z,24.16
2017-03-11T07:41:07.908Z,24.17
2017-03-11T07:42:17.806Z,24.3
2017-03-11T07:43:26.574Z,24.24
2017-03-11T07:44:35.396Z,24.36
2017-03-11T07:45:44.574Z,24.39
2017-03-11T07:46:53.550Z,24.43
2017-03-11T07:48:03.079Z,24.39
2017-03-11T07:49:13.036Z,24.53
2017-03-11T07:50:22.586Z,24.55
2017-03-11T07:51:32.536Z,24.54
2017-03-11T07:52:42.481Z,24.51
2017-03-11T07:53:51.931Z,24.58
2017-03-11T07:55:02.276Z,24.66
2017-03-11T07:56:11.055Z,24.7
2017-03-11T07:57:20.189Z,24.69
2017-03-11T07:58:29.765Z,24.76
2017-03-11T07:59:39.320Z,24.74
2017-03-11T08:00:48.875Z,24.8
2017-03-11T08:01:58.431Z,24.77
2017-03-11T08:03:07.978Z,24.81
2017-03-11T08:04:17.927Z,24.86
2017-03-11T08:05:27.123Z,24.91
2017-03-11T08:06:37.084Z,24.95
2017-03-11T08:07:47.241Z,24.86
2017-03-11T08:08:56.754Z,24.89
2017-03-11T08:10:06.620Z,24.91
2017-03-11T08:11:15.776Z,24.96
2017-03-11T08:12:25.736Z,24.99
2017-03-11T08:13:35.708Z,24.98
2017-03-11T08:14:45.662Z,25.07
2017-03-11T08:15:55.987Z,25.04
2017-03-11T08:17:04.782Z,25.21
2017-03-11T08:18:14.233Z,25.22
2017-03-11T08:19:23.800Z,25.23
2017-03-11T08:20:32.585Z,25.29
2017-03-11T08:21:42.521Z,25.32
2017-03-11T08:22:51.713Z,25.33
2017-03-11T08:24:02.069Z,25.4
2017-03-11T08:25:11.635Z,25.48
2017-03-11T08:26:21.591Z,25.48
2017-03-11T08:27:30.378Z,25.54
2017-03-11T08:28:40.357Z,25.59
2017-03-11T08:29:49.934Z,25.63
2017-03-11T08:30:59.532Z,25.55
2017-03-11T08:32:09.449Z,25.63
2017-03-11T08:33:18.596Z,25.65
2017-03-11T08:34:28.518Z,25.6
2017-03-11T08:35:38.779Z,25.65
2017-03-11T08:36:48.732Z,25.62
2017-03-11T08:37:59.061Z,25.68
2017-03-11T08:39:09.002Z,25.66
2017-03-11T08:40:18.144Z,25.72
2017-03-11T08:41:28.094Z,25.65
2017-03-11T08:42:38.084Z,25.72
2017-03-11T08:43:48.055Z,25.69
2017-03-11T08:44:57.625Z,25.73
2017-03-11T08:46:07.196Z,25.85
2017-03-11T08:47:17.128Z,25.77
2017-03-11T08:48:26.711Z,25.77
2017-03-11T08:49:37.061Z,25.84
2017-03-11T08:50:46.635Z,25.88
2017-03-11T08:51:56.199Z,25.78
2017-03-11T08:53:06.169Z,25.81
2017-03-11T08:54:15.754Z,25.93
2017-03-11T08:55:24.933Z,25.95
2017-03-11T08:56:35.268Z,26
2017-03-11T08:57:44.453Z,26
2017-03-11T08:58:54.029Z,26.02
2017-03-11T09:00:04.359Z,26.05
2017-03-11T09:01:13.529Z,26.21
2017-03-11T09:02:23.050Z,26.19
2017-03-11T09:03:32.639Z,26.31
2017-03-11T09:04:42.614Z,26.36
2017-03-11T09:05:51.812Z,26.33
2017-03-11T09:07:01.416Z,26.33
2017-03-11T09:08:10.971Z,26.37
2017-03-11T09:09:20.543Z,26.41
2017-03-11T09:10:29.959Z,26.51
2017-03-11T09:11:39.509Z,26.56
2017-03-11T09:12:49.058Z,26.63
2017-03-11T09:13:58.623Z,26.8
2017-03-11T09:15:08.154Z,27.11
2017-03-11T09:16:18.451Z,27.22
2017-03-11T09:17:27.644Z,27.54
2017-03-11T09:18:36.781Z,27.8
2017-03-11T09:19:46.329Z,28.04
2017-03-11T09:20:56.615Z,28.22
2017-03-11T09:22:07.336Z,28.35
2017-03-11T09:23:16.541Z,28.56
2017-03-11T09:24:26.125Z,28.81
2017-03-11T09:25:35.293Z,28.98
2017-03-11T09:26:45.656Z,29.16
2017-03-11T09:27:55.622Z,29.47
2017-03-11T09:29:04.784Z,29.59
2017-03-11T09:30:14.362Z,29.75
2017-03-11T09:31:23.804Z,30.05
2017-03-11T09:32:33.371Z,30.12
2017-03-11T09:33:43.703Z,30.4
2017-03-11T09:34:54.190Z,30.51
2017-03-11T09:36:04.089Z,30.61
2017-03-11T09:37:12.813Z,30.78
2017-03-11T09:38:21.966Z,30.83
2017-03-11T09:39:31.938Z,30.92
2017-03-11T09:40:41.670Z,30.97
2017-03-11T09:41:51.579Z,31.14
2017-03-11T09:43:01.005Z,31.24
2017-03-11T09:44:10.978Z,31.34
2017-03-11T09:45:20.961Z,31.43
2017-03-11T09:46:29.756Z,31.54
2017-03-11T09:47:38.932Z,31.76
2017-03-11T09:48:48.487Z,31.94
2017-03-11T09:49:58.422Z,32.08
2017-03-11T09:51:08.301Z,32.16
2017-03-11T09:52:17.482Z,32.18
2017-03-11T09:53:26.656Z,32.21
2017-03-11T09:54:36.230Z,32.22
2017-03-11T09:55:46.186Z,32.18
2017-03-11T09:56:55.777Z,32.43
2017-03-11T09:58:05.336Z,32.36
2017-03-11T09:59:14.475Z,32.51
2017-03-11T10:00:24.788Z,32.49
2017-03-11T10:01:33.609Z,32.49
2017-03-11T10:02:43.565Z,32.46
2017-03-11T10:03:53.003Z,32.53
2017-03-11T10:05:02.577Z,32.6
2017-03-11T10:06:11.767Z,32.55
2017-03-11T10:07:20.947Z,32.55
2017-03-11T10:08:31.262Z,32.56
2017-03-11T10:09:40.414Z,32.46
2017-03-11T10:10:49.561Z,32.48
2017-03-11T10:12:00.278Z,32.46
2017-03-11T10:13:09.846Z,32.49
2017-03-11T10:14:19.798Z,32.49
2017-03-11T10:15:29.758Z,32.3
2017-03-11T10:16:38.963Z,32.16
2017-03-11T10:17:48.536Z,32
2017-03-11T10:18:58.712Z,31.77
2017-03-11T10:20:08.268Z,31.62
2017-03-11T10:21:18.604Z,31.55
2017-03-11T10:22:28.183Z,31.42
2017-03-11T10:23:38.921Z,31.42
2017-03-11T10:24:48.494Z,31.37
2017-03-11T10:25:59.213Z,31.39
2017-03-11T10:27:08.395Z,31.24
2017-03-11T10:28:18.343Z,31.18
2017-03-11T10:29:27.918Z,31.28
2017-03-11T10:30:37.344Z,31.17
2017-03-11T10:31:46.908Z,31.1
2017-03-11T10:32:55.724Z,31.02
2017-03-11T10:34:05.689Z,31.17
2017-03-11T10:35:15.249Z,31.24
2017-03-11T10:36:25.222Z,31.27
2017-03-11T10:37:34.799Z,31.4
2017-03-11T10:38:44.348Z,31.49
2017-03-11T10:39:53.516Z,31.56
2017-03-11T10:41:03.038Z,31.64
2017-03-11T10:42:12.196Z,31.69
2017-03-11T10:43:22.557Z,31.85
2017-03-11T10:44:32.076Z,32
2017-03-11T10:45:41.616Z,32.04
2017-03-11T10:46:50.791Z,32.04
2017-03-11T10:48:00.390Z,32.08
2017-03-11T10:49:09.541Z,32.08
2017-03-11T10:50:18.940Z,32.01
2017-03-11T10:51:27.748Z,32.04
2017-03-11T10:52:37.733Z,31.97
2017-03-11T10:53:48.069Z,31.92
2017-03-11T10:54:58.027Z,32.08
2017-03-11T10:56:07.196Z,32.08
2017-03-11T10:57:16.378Z,32.14
2017-03-11T10:58:25.577Z,32.19
2017-03-11T10:59:35.547Z,32.16
2017-03-11T11:00:44.977Z,32.21
2017-03-11T11:01:54.173Z,32.16
2017-03-11T11:03:04.123Z,32.31
2017-03-11T11:04:13.687Z,32.37
2017-03-11T11:05:24.015Z,32.49
2017-03-11T11:06:33.599Z,32.52
2017-03-11T11:07:43.164Z,32.49
2017-03-11T11:08:53.106Z,32.37
2017-03-11T11:10:03.438Z,32.34
2017-03-11T11:11:13.766Z,32.22
2017-03-11T11:12:23.705Z,32.34
2017-03-11T11:13:33.655Z,32.33
2017-03-11T11:14:43.637Z,32.43
2017-03-11T11:15:53.231Z,32.48
2017-03-11T11:17:03.600Z,32.58
2017-03-11T11:18:13.612Z,32.58
2017-03-11T11:19:23.513Z,32.52
2017-03-11T11:20:32.675Z,32.51
2017-03-11T11:21:42.515Z,32.36
2017-03-11T11:22:52.486Z,32.3
2017-03-11T11:24:02.561Z,32.21
2017-03-11T11:25:11.772Z,32.19
2017-03-11T11:26:21.702Z,32.16
2017-03-11T11:27:32.436Z,32.27
2017-03-11T11:28:42.380Z,32.43
2017-03-11T11:29:52.691Z,32.52
2017-03-11T11:31:02.612Z,32.52
2017-03-11T11:32:12.561Z,32.65
2017-03-11T11:33:22.492Z,32.68
2017-03-11T11:34:32.435Z,32.78
2017-03-11T11:35:42.779Z,32.8
2017-03-11T11:36:52.735Z,32.89
2017-03-11T11:38:02.706Z,32.85
2017-03-11T11:39:12.275Z,32.55
2017-03-11T11:40:22.097Z,32.53
2017-03-11T11:41:30.903Z,32.3
2017-03-11T11:42:40.326Z,32.16
2017-03-11T11:43:50.294Z,32.09
2017-03-11T11:44:59.840Z,32.12
2017-03-11T11:46:09.040Z,32.09
2017-03-11T11:47:18.230Z,32.03
2017-03-11T11:48:28.555Z,32.07
2017-03-11T11:49:38.107Z,32.08
2017-03-11T11:50:47.661Z,32.16
2017-03-11T11:51:57.977Z,32.04
2017-03-11T11:53:07.726Z,32.04
2017-03-11T11:54:17.665Z,32.04
2017-03-11T11:55:27.238Z,32
2017-03-11T11:56:36.877Z,31.99
2017-03-11T11:57:46.791Z,32.01
2017-03-11T11:58:56.737Z,31.96
2017-03-11T12:00:07.033Z,31.78
2017-03-11T12:01:17.728Z,31.59
2017-03-11T12:02:26.893Z,31.58
2017-03-11T12:03:36.457Z,31.49
2017-03-11T12:04:45.654Z,31.31
2017-03-11T12:05:55.214Z,31.02
2017-03-11T12:07:05.174Z,30.73
2017-03-11T12:08:14.344Z,30.53
2017-03-11T12:09:23.523Z,30.32
2017-03-11T12:10:33.516Z,30
2017-03-11T12:11:42.291Z,29.93
2017-03-11T12:12:52.204Z,29.73
2017-03-11T12:14:02.174Z,29.57
2017-03-11T12:15:11.356Z,29.41
2017-03-11T12:16:20.504Z,29.35
2017-03-11T12:17:30.026Z,29.23
2017-03-11T12:18:39.207Z,28.97
2017-03-11T12:19:48.743Z,28.89
2017-03-11T12:20:57.545Z,28.82
2017-03-11T12:22:06.707Z,28.67
2017-03-11T12:23:16.271Z,28.57
2017-03-11T12:24:26.614Z,28.47
2017-03-11T12:25:36.941Z,28.33
2017-03-11T12:26:46.917Z,28.17
2017-03-11T12:27:56.494Z,27.96
2017-03-11T12:29:06.064Z,27.93
2017-03-11T12:30:16.030Z,27.77
2017-03-11T12:31:26.360Z,27.65
2017-03-11T12:32:35.198Z,27.64
2017-03-11T12:33:45.532Z,27.52
2017-03-11T12:34:55.097Z,27.44
2017-03-11T12:36:04.520Z,27.33
2017-03-11T12:37:14.821Z,27.29
2017-03-11T12:38:24.363Z,27.11
2017-03-11T12:39:33.513Z,27.07
2017-03-11T12:40:43.065Z,27.08
2017-03-11T12:41:52.630Z,26.99
2017-03-11T12:43:01.821Z,26.9
2017-03-11T12:44:11.781Z,26.89
2017-03-11T12:45:20.529Z,26.81
2017-03-11T12:46:30.437Z,26.78
2017-03-11T12:47:39.969Z,26.71
2017-03-11T12:48:49.537Z,26.62
2017-03-11T12:49:58.693Z,26.58
2017-03-11T12:51:09.028Z,26.56
2017-03-11T12:52:18.958Z,26.47
2017-03-11T12:53:28.514Z,26.4
2017-03-11T12:54:38.471Z,26.33
2017-03-11T12:55:48.396Z,26.29
2017-03-11T12:56:58.609Z,26.33
2017-03-11T12:58:07.794Z,26.31
2017-03-11T12:59:16.939Z,26.22
2017-03-11T13:00:27.266Z,26.03
2017-03-11T13:01:36.823Z,26.13
2017-03-11T13:02:46.373Z,26.06
2017-03-11T13:03:55.896Z,25.95
2017-03-11T13:05:04.683Z,25.9
2017-03-11T13:06:14.255Z,25.83
2017-03-11T13:07:24.836Z,25.81
2017-03-11T13:08:35.558Z,25.84
2017-03-11T13:09:45.886Z,25.8
2017-03-11T13:10:55.072Z,25.78
2017-03-11T13:12:03.868Z,25.77
2017-03-11T13:13:13.831Z,25.65
2017-03-11T13:14:23.040Z,25.65
2017-03-11T13:15:32.942Z,25.68
2017-03-11T13:16:42.814Z,25.63
2017-03-11T13:17:52.368Z,25.6
2017-03-11T13:19:01.533Z,25.51
2017-03-11T13:20:11.469Z,25.58
2017-03-11T13:21:21.413Z,25.58
2017-03-11T13:22:30.607Z,25.48
2017-03-11T13:23:39.562Z,25.48
2017-03-11T13:24:48.699Z,25.41
2017-03-11T13:25:58.748Z,25.41
2017-03-11T13:27:08.321Z,25.38
2017-03-11T13:28:17.884Z,25.35
2017-03-11T13:29:27.845Z,25.35
2017-03-11T13:30:37.746Z,25.36
2017-03-11T13:31:48.054Z,25.23
2017-03-11T13:32:57.597Z,25.25
2017-03-11T13:34:07.345Z,25.18
2017-03-11T13:35:16.903Z,25.25
2017-03-11T13:36:26.114Z,25.18
2017-03-11T13:37:36.462Z,25.25
2017-03-11T13:38:46.037Z,25.14
2017-03-11T13:39:55.552Z,25.18
2017-03-11T13:41:04.697Z,25.16
2017-03-11T13:42:14.281Z,25.16
2017-03-11T13:43:24.253Z,25.14
2017-03-11T13:44:33.383Z,25.14
2017-03-11T13:45:43.652Z,25.16
2017-03-11T13:46:53.956Z,24.98
2017-03-11T13:48:04.282Z,25.08
2017-03-11T13:49:14.197Z,25.03
2017-03-11T13:50:23.347Z,25.04
2017-03-11T13:51:32.950Z,25.04
2017-03-11T13:52:41.744Z,25.04
2017-03-11T13:53:52.087Z,24.98
2017-03-11T13:55:02.051Z,24.99
2017-03-11T13:56:12.005Z,24.92
2017-03-11T13:57:21.229Z,24.99
2017-03-11T13:58:31.048Z,24.96
2017-03-11T13:59:40.227Z,24.89
2017-03-11T14:00:50.671Z,25.01
2017-03-11T14:01:59.459Z,24.91
2017-03-11T14:03:09.039Z,24.88
2017-03-11T14:04:18.976Z,24.88
2017-03-11T14:05:28.176Z,24.88
2017-03-11T14:06:37.733Z,24.93
2017-03-11T14:07:46.837Z,24.89
2017-03-11T14:08:56.003Z,24.91
2017-03-11T14:10:05.450Z,24.86
2017-03-11T14:11:15.006Z,24.81
2017-03-11T14:12:25.009Z,24.77
2017-03-11T14:13:35.337Z,24.76
2017-03-11T14:14:45.283Z,24.7
2017-03-11T14:15:54.841Z,24.66
2017-03-11T14:17:04.414Z,24.77
2017-03-11T14:18:15.127Z,24.74
2017-03-11T14:19:25.858Z,24.69
2017-03-11T14:20:35.666Z,24.73
2017-03-11T14:21:45.966Z,24.7
2017-03-11T14:22:54.739Z,24.69
2017-03-11T14:24:05.070Z,24.68
2017-03-11T14:25:15.020Z,24.69
2017-03-11T14:26:24.540Z,24.68
2017-03-11T14:27:34.460Z,24.68
2017-03-11T14:28:44.407Z,24.63
2017-03-11T14:29:53.981Z,24.61
2017-03-11T14:31:03.925Z,24.6
2017-03-11T14:32:13.477Z,24.51
2017-03-11T14:33:23.386Z,24.51
2017-03-11T14:34:32.520Z,24.4
2017-03-11T14:35:42.085Z,24.47
2017-03-11T14:36:50.891Z,24.47
2017-03-11T14:38:00.831Z,24.43
2017-03-11T14:39:10.397Z,24.33
2017-03-11T14:40:20.392Z,24.39
2017-03-11T14:41:31.079Z,24.36
2017-03-11T14:42:41.023Z,24.28
2017-03-11T14:43:51.177Z,24.18
2017-03-11T14:45:00.380Z,24.3
2017-03-11T14:46:10.381Z,24.21
2017-03-11T14:47:20.719Z,24.21
2017-03-11T14:48:30.294Z,24.14
2017-03-11T14:49:40.216Z,24.2
2017-03-11T14:50:50.166Z,24.06
2017-03-11T14:51:59.173Z,24.1
2017-03-11T14:53:09.484Z,24.05
2017-03-11T14:54:19.053Z,24.01
2017-03-11T14:55:29.794Z,23.99
2017-03-11T14:56:39.018Z,23.88
2017-03-11T14:57:49.359Z,23.92
2017-03-11T14:58:58.565Z,23.91
2017-03-11T15:00:08.137Z,23.92
2017-03-11T15:01:17.703Z,23.81
2017-03-11T15:02:27.541Z,23.84